createdAt,value
2022-11-27T00:01:10.786Z,102428.19
2022-11-27T00:03:38.668Z,102422.78
2022-11-27T00:06:07.395Z,102427.31
2022-11-27T00:08:35.210Z,102429.03
2022-11-27T00:11:09.087Z,102436.94
2022-11-27T00:13:37.185Z,102435.25
2022-11-27T00:16:06.120Z,102424.59
2022-11-27T00:18:34.075Z,102424.66
2022-11-27T00:21:04.702Z,102420.22
2022-11-27T00:23:34.133Z,102420.97
2022-11-27T00:26:02.127Z,102419.13
2022-11-27T00:28:31.408Z,102424.41
2022-11-27T00:31:00.548Z,102413.75
2022-11-27T00:33:28.537Z,102415.56
2022-11-27T00:35:56.491Z,102414.59
2022-11-27T00:38:24.247Z,102412.78
2022-11-27T00:40:51.994Z,102417.13
2022-11-27T00:43:19.696Z,102403.91
2022-11-27T00:45:51.166Z,102408.34
2022-11-27T00:48:18.883Z,102394.97
2022-11-27T00:50:46.617Z,102377.16
2022-11-27T00:53:14.328Z,102380.56
2022-11-27T00:55:42.067Z,102376.97
2022-11-27T00:58:09.838Z,102394.69
2022-11-27T01:00:37.598Z,102388.41
2022-11-27T01:03:06.914Z,102392.78
2022-11-27T01:05:37.077Z,102393.72
2022-11-27T01:08:04.973Z,102395.50
2022-11-27T01:10:32.650Z,102399.84
2022-11-27T01:13:00.415Z,102396.34
2022-11-27T01:15:28.108Z,102392.69
2022-11-27T01:17:55.814Z,102393.63
2022-11-27T01:20:24.987Z,102389.22
2022-11-27T01:22:52.708Z,102379.41
2022-11-27T01:25:25.524Z,102377.69
2022-11-27T01:27:54.743Z,102389.22
2022-11-27T01:30:22.704Z,102382.09
2022-11-27T01:32:50.416Z,102381.19
2022-11-27T01:35:18.378Z,102383.78
2022-11-27T01:37:47.500Z,102382.94
2022-11-27T01:40:15.283Z,102376.66
2022-11-27T01:42:43.021Z,102373.97
2022-11-27T01:45:12.046Z,102371.25
2022-11-27T01:47:46.702Z,102372.19
2022-11-27T01:50:20.034Z,102366.78
2022-11-27T01:52:53.358Z,102370.16
2022-11-27T01:55:28.806Z,102367.44
2022-11-27T01:58:01.149Z,102369.97
2022-11-27T02:00:28.999Z,102377.97
2022-11-27T02:02:56.781Z,102371.78
2022-11-27T02:05:28.538Z,102363.75
2022-11-27T02:07:59.878Z,102368.13
2022-11-27T02:10:37.945Z,102367.22
2022-11-27T02:13:11.094Z,102363.63
2022-11-27T02:15:47.902Z,102360.00
2022-11-27T02:18:26.176Z,102349.31
2022-11-27T02:21:00.690Z,102352.94
2022-11-27T02:23:54.056Z,102357.28
2022-11-27T02:26:47.439Z,102356.50
2022-11-27T02:29:21.991Z,102348.44
2022-11-27T02:31:56.610Z,102340.47
2022-11-27T02:34:28.676Z,102333.28
2022-11-27T02:37:01.962Z,102325.22
2022-11-27T02:39:36.106Z,102322.47
2022-11-27T02:42:10.649Z,102303.75
2022-11-27T02:44:46.040Z,102305.44
2022-11-27T02:47:15.504Z,102292.91
2022-11-27T02:49:45.278Z,102293.69
2022-11-27T02:52:14.783Z,102294.53
2022-11-27T02:54:44.715Z,102285.63
2022-11-27T02:57:14.817Z,102283.84
2022-11-27T02:59:45.763Z,102285.53
2022-11-27T03:02:19.805Z,102287.25
2022-11-27T03:04:54.844Z,102282.78
2022-11-27T03:07:31.370Z,102281.78
2022-11-27T03:10:04.806Z,102276.47
2022-11-27T03:12:32.718Z,102274.69
2022-11-27T03:15:01.856Z,102270.25
2022-11-27T03:17:41.573Z,102269.28
2022-11-27T03:20:16.576Z,102265.75
2022-11-27T03:22:44.413Z,102271.84
2022-11-27T03:25:12.341Z,102271.84
2022-11-27T03:27:45.589Z,102263.16
2022-11-27T03:30:15.318Z,102265.94
2022-11-27T03:32:43.761Z,102262.44
2022-11-27T03:35:14.646Z,102261.66
2022-11-27T03:37:42.559Z,102261.59
2022-11-27T03:40:13.017Z,102264.31
2022-11-27T03:42:52.178Z,102271.41
2022-11-27T03:45:31.149Z,102266.16
2022-11-27T03:48:12.616Z,102268.88
2022-11-27T03:50:52.513Z,102267.09
2022-11-27T03:53:27.134Z,102264.38
2022-11-27T03:56:06.776Z,102249.22
2022-11-27T03:58:37.653Z,102240.41
2022-11-27T04:01:12.112Z,102229.78
2022-11-27T04:03:40.180Z,102221.03
2022-11-27T04:06:08.015Z,102229.06
2022-11-27T04:08:35.848Z,102230.97
2022-11-27T04:11:03.537Z,102223.00
2022-11-27T04:13:31.205Z,102206.16
2022-11-27T04:16:01.415Z,102208.84
2022-11-27T04:18:31.057Z,102216.84
2022-11-27T04:20:59.072Z,102211.63
2022-11-27T04:23:26.843Z,102206.31
2022-11-27T04:25:54.615Z,102201.00
2022-11-27T04:28:22.413Z,102196.63
2022-11-27T04:30:53.813Z,102199.38
2022-11-27T04:33:21.803Z,102191.44
2022-11-27T04:35:51.400Z,102191.44
2022-11-27T04:38:19.212Z,102190.66
2022-11-27T04:40:46.966Z,102181.78
2022-11-27T04:43:15.087Z,102180.06
2022-11-27T04:45:44.360Z,102184.53
2022-11-27T04:48:12.257Z,102187.31
2022-11-27T04:50:40.126Z,102190.84
2022-11-27T04:53:09.305Z,102187.31
2022-11-27T04:55:37.236Z,102172.38
2022-11-27T04:58:05.031Z,102183.84
2022-11-27T05:00:34.054Z,102173.34
2022-11-27T05:03:01.893Z,102179.56
2022-11-27T05:05:29.662Z,102183.13
2022-11-27T05:07:57.506Z,102181.31
2022-11-27T05:10:26.782Z,102187.56
2022-11-27T05:12:54.522Z,102169.81
2022-11-27T05:15:22.339Z,102161.91
2022-11-27T05:17:50.254Z,102160.22
2022-11-27T05:20:18.521Z,102161.03
2022-11-27T05:22:48.185Z,102162.84
2022-11-27T05:25:16.099Z,102157.63
2022-11-27T05:27:45.432Z,102148.75
2022-11-27T05:30:13.583Z,102155.03
2022-11-27T05:32:41.399Z,102157.69
2022-11-27T05:35:09.862Z,102152.53
2022-11-27T05:37:37.635Z,102151.63
2022-11-27T05:40:06.525Z,102145.34
2022-11-27T05:42:34.224Z,102147.91
2022-11-27T05:45:03.383Z,102148.00
2022-11-27T05:47:31.057Z,102147.16
2022-11-27T05:49:58.742Z,102135.59
2022-11-27T05:52:26.503Z,102132.00
2022-11-27T05:54:54.992Z,102128.47
2022-11-27T05:57:22.700Z,102131.09
2022-11-27T05:59:50.427Z,102127.53
2022-11-27T06:02:23.734Z,102128.47
2022-11-27T06:04:54.217Z,102115.19
2022-11-27T06:07:21.956Z,102116.03
2022-11-27T06:09:49.699Z,102115.22
2022-11-27T06:12:17.490Z,102117.09
2022-11-27T06:14:45.243Z,102115.34
2022-11-27T06:17:15.619Z,102119.84
2022-11-27T06:19:44.883Z,102107.44
2022-11-27T06:22:12.621Z,102104.78
2022-11-27T06:24:40.741Z,102111.03
2022-11-27T06:27:08.946Z,102095.13
2022-11-27T06:29:37.988Z,102106.63
2022-11-27T06:32:06.587Z,102110.25
2022-11-27T06:34:34.458Z,102116.47
2022-11-27T06:37:03.625Z,102105.91
2022-11-27T06:39:31.442Z,102105.94
2022-11-27T06:41:59.148Z,102104.25
2022-11-27T06:44:26.954Z,102094.50
2022-11-27T06:46:54.762Z,102092.69
2022-11-27T06:49:22.673Z,102079.44
2022-11-27T06:51:50.807Z,102072.34
2022-11-27T06:54:19.929Z,102064.25
2022-11-27T06:56:51.886Z,102063.34
2022-11-27T06:59:24.533Z,102065.06
2022-11-27T07:01:52.375Z,102061.59
2022-11-27T07:04:20.134Z,102067.91
2022-11-27T07:06:47.850Z,102063.44
2022-11-27T07:09:15.629Z,102061.75
2022-11-27T07:11:44.794Z,102071.53
2022-11-27T07:14:12.592Z,102064.56
2022-11-27T07:16:40.507Z,102054.84
2022-11-27T07:19:09.095Z,102053.22
2022-11-27T07:21:37.543Z,102053.28
2022-11-27T07:24:05.624Z,102055.09
2022-11-27T07:26:33.698Z,102060.41
2022-11-27T07:29:02.992Z,102059.56
2022-11-27T07:31:32.017Z,102059.59
2022-11-27T07:34:00.300Z,102046.28
2022-11-27T07:36:30.550Z,102040.16
2022-11-27T07:38:59.114Z,102047.31
2022-11-27T07:41:32.430Z,102060.66
2022-11-27T07:44:03.046Z,102046.53
2022-11-27T07:46:31.245Z,102040.34
2022-11-27T07:49:00.408Z,102046.63
2022-11-27T07:51:28.651Z,102046.72
2022-11-27T07:53:56.439Z,102048.53
2022-11-27T07:56:24.150Z,102047.72
2022-11-27T07:58:51.984Z,102039.78
2022-11-27T08:01:21.692Z,102042.50
2022-11-27T08:03:49.616Z,102040.81
2022-11-27T08:06:19.477Z,102038.31
2022-11-27T08:08:47.546Z,102040.19
2022-11-27T08:11:21.127Z,102024.31
2022-11-27T08:13:49.469Z,102020.91
2022-11-27T08:16:17.823Z,102011.28
2022-11-27T08:18:47.179Z,102012.25
2022-11-27T08:21:15.590Z,102013.31
2022-11-27T08:23:43.491Z,102017.88
2022-11-27T08:26:12.668Z,102011.81
2022-11-27T08:28:41.849Z,102013.69
2022-11-27T08:31:12.067Z,102016.41
2022-11-27T08:33:40.026Z,102003.16
2022-11-27T08:36:14.974Z,102013.00
2022-11-27T08:38:45.534Z,102008.72
2022-11-27T08:41:13.310Z,101996.31
2022-11-27T08:43:41.143Z,102001.72
2022-11-27T08:46:09.887Z,102004.50
2022-11-27T08:48:38.026Z,101986.84
2022-11-27T08:51:07.798Z,101986.00
2022-11-27T08:53:37.702Z,101982.44
2022-11-27T08:56:10.644Z,101981.53
2022-11-27T08:58:40.935Z,101987.75
2022-11-27T09:01:10.755Z,101984.16
2022-11-27T09:03:38.830Z,101985.94
2022-11-27T09:06:11.372Z,101993.97
2022-11-27T09:08:40.827Z,101979.78
2022-11-27T09:11:09.507Z,101979.81
2022-11-27T09:13:37.700Z,101972.84
2022-11-27T09:16:05.630Z,101963.13
2022-11-27T09:18:33.615Z,101969.41
2022-11-27T09:21:05.163Z,101966.84
2022-11-27T09:23:33.495Z,101955.38
2022-11-27T09:26:04.074Z,101956.34
2022-11-27T09:28:33.467Z,101956.41
2022-11-27T09:31:03.387Z,101950.25
2022-11-27T09:33:32.892Z,101953.88
2022-11-27T09:36:05.810Z,101946.78
2022-11-27T09:38:33.897Z,101949.56
2022-11-27T09:41:13.176Z,101941.63
2022-11-27T09:43:45.772Z,101948.81
2022-11-27T09:46:20.276Z,101945.34
2022-11-27T09:48:51.732Z,101952.56
2022-11-27T09:51:29.568Z,101941.97
2022-11-27T09:54:03.039Z,101944.69
2022-11-27T09:56:36.218Z,101950.06
2022-11-27T09:59:09.665Z,101937.69
2022-11-27T10:01:45.244Z,101939.56
2022-11-27T10:04:20.819Z,101939.56
2022-11-27T10:07:13.405Z,101939.63
2022-11-27T10:09:55.109Z,101941.41
2022-11-27T10:12:34.141Z,101938.75
2022-11-27T10:15:08.508Z,101937.91
2022-11-27T10:17:41.072Z,101936.13
2022-11-27T10:20:15.905Z,101928.13
2022-11-27T10:22:51.379Z,101935.25
2022-11-27T10:25:22.075Z,101929.03
2022-11-27T10:28:04.018Z,101920.13
2022-11-27T10:30:37.735Z,101914.75
2022-11-27T10:33:17.262Z,101915.63
2022-11-27T10:35:48.653Z,101914.72
2022-11-27T10:38:20.472Z,101905.88
2022-11-27T10:40:54.558Z,101904.97
2022-11-27T10:43:25.303Z,101889.88
2022-11-27T10:45:55.557Z,101892.44
2022-11-27T10:48:24.063Z,101882.66
2022-11-27T10:50:52.211Z,101877.25
2022-11-27T10:53:27.502Z,101871.97
2022-11-27T10:56:32.463Z,101861.34
2022-11-27T10:59:04.504Z,101854.19
2022-11-27T11:01:43.987Z,101850.56
2022-11-27T11:04:36.379Z,101831.00
2022-11-27T11:07:02.744Z,101823.03
2022-11-27T11:09:32.247Z,101810.56
2022-11-27T11:12:08.717Z,101810.63
2022-11-27T11:14:38.151Z,101819.53
2022-11-27T11:17:17.034Z,101813.34
2022-11-27T11:19:45.949Z,101800.94
2022-11-27T11:22:16.295Z,101784.09
2022-11-27T11:24:47.845Z,101793.94
2022-11-27T11:27:18.436Z,101796.63
2022-11-27T11:29:51.881Z,101787.78
2022-11-27T11:32:24.820Z,101789.63
2022-11-27T11:35:00.903Z,101770.06
2022-11-27T11:37:31.533Z,101761.13
2022-11-27T11:40:01.990Z,101774.53
2022-11-27T11:42:31.912Z,101767.41
2022-11-27T11:45:07.108Z,101772.78
2022-11-27T11:47:36.766Z,101750.53
2022-11-27T11:50:05.070Z,101740.75
2022-11-27T11:52:48.098Z,101733.69
2022-11-27T11:55:21.002Z,101725.69
2022-11-27T11:58:03.648Z,101733.72
2022-11-27T12:00:58.460Z,101732.84
2022-11-27T12:03:36.182Z,101734.69
2022-11-27T12:06:32.865Z,101731.19
2022-11-27T12:09:09.442Z,101736.53
2022-11-27T12:11:45.431Z,101726.75
2022-11-27T12:14:23.572Z,101721.50
2022-11-27T12:17:02.819Z,101723.31
2022-11-27T12:19:55.774Z,101714.41
2022-11-27T12:22:37.061Z,101708.16
2022-11-27T12:25:18.692Z,101711.72
2022-11-27T12:28:02.391Z,101702.84
2022-11-27T12:30:41.967Z,101700.19
2022-11-27T12:33:44.864Z,101703.81
2022-11-27T12:36:23.416Z,101705.56
2022-11-27T12:39:10.228Z,101694.03
2022-11-27T12:41:50.825Z,101694.94
2022-11-27T12:44:26.287Z,101691.38
2022-11-27T12:46:59.768Z,101684.28
2022-11-27T12:49:33.488Z,101686.03
2022-11-27T12:52:10.918Z,101685.16
2022-11-27T12:54:44.377Z,101678.94
2022-11-27T12:57:17.645Z,101666.44
2022-11-27T12:59:51.871Z,101656.63
2022-11-27T13:02:39.629Z,101655.75
2022-11-27T13:05:13.319Z,101640.66
2022-11-27T13:07:47.979Z,101630.84
2022-11-27T13:10:24.499Z,101624.63
2022-11-27T13:13:03.040Z,101613.97
2022-11-27T13:15:35.525Z,101610.44
2022-11-27T13:18:06.122Z,101614.00
2022-11-27T13:20:39.862Z,101610.44
2022-11-27T13:23:07.625Z,101609.56
2022-11-27T13:25:42.877Z,101611.38
2022-11-27T13:28:22.191Z,101616.72
2022-11-27T13:30:52.651Z,101611.38
2022-11-27T13:33:34.116Z,101606.91
2022-11-27T13:36:07.026Z,101605.16
2022-11-27T13:38:37.471Z,101611.38
2022-11-27T13:41:06.919Z,101606.03
2022-11-27T13:43:43.311Z,101606.03
2022-11-27T13:46:16.201Z,101595.34
2022-11-27T13:48:49.246Z,101589.06
2022-11-27T13:51:27.659Z,101588.19
2022-11-27T13:54:07.310Z,101599.75
2022-11-27T13:56:35.154Z,101599.75
2022-11-27T13:59:14.481Z,101597.06
2022-11-27T14:01:53.856Z,101581.00
2022-11-27T14:04:21.617Z,101589.91
2022-11-27T14:06:57.537Z,101590.78
2022-11-27T14:09:34.685Z,101594.31
2022-11-27T14:12:02.527Z,101588.09
2022-11-27T14:14:30.579Z,101576.50
2022-11-27T14:17:02.645Z,101567.59
2022-11-27T14:19:34.903Z,101562.25
2022-11-27T14:22:15.691Z,101579.16
2022-11-27T14:24:45.862Z,101583.59
2022-11-27T14:27:19.954Z,101588.00
2022-11-27T14:29:47.763Z,101591.56
2022-11-27T14:32:17.309Z,101595.16
2022-11-27T14:34:46.093Z,101600.50
2022-11-27T14:37:27.035Z,101596.03
2022-11-27T14:39:55.262Z,101588.91
2022-11-27T14:42:29.043Z,101550.63
2022-11-27T14:45:06.452Z,101517.59
2022-11-27T14:47:35.110Z,101546.09
2022-11-27T14:50:03.946Z,101546.94
2022-11-27T14:52:33.214Z,101571.00
2022-11-27T14:55:02.267Z,101553.19
2022-11-27T14:57:31.904Z,101535.41
2022-11-27T15:00:17.232Z,101519.38
2022-11-27T15:02:45.383Z,101512.22
2022-11-27T15:05:23.028Z,101497.06
2022-11-27T15:07:54.871Z,101488.13
2022-11-27T15:10:33.347Z,101499.66
2022-11-27T15:13:02.500Z,101487.19
2022-11-27T15:15:34.880Z,101470.28
2022-11-27T15:18:05.864Z,101472.06
2022-11-27T15:20:39.615Z,101469.41
2022-11-27T15:23:17.429Z,101472.06
2022-11-27T15:25:47.685Z,101477.41
2022-11-27T15:28:36.104Z,101481.81
2022-11-27T15:31:22.448Z,101484.50
2022-11-27T15:33:59.690Z,101489.84
2022-11-27T15:36:28.225Z,101484.50
2022-11-27T15:39:17.420Z,101480.06
2022-11-27T15:41:52.562Z,101465.78
2022-11-27T15:44:20.342Z,101453.31
2022-11-27T15:46:48.322Z,101461.34
2022-11-27T15:49:16.226Z,101446.22
2022-11-27T15:51:44.539Z,101445.31
2022-11-27T15:54:13.638Z,101444.44
2022-11-27T15:56:41.504Z,101445.31
2022-11-27T15:59:10.085Z,101459.59
2022-11-27T16:01:38.250Z,101450.72
2022-11-27T16:04:06.257Z,101454.25
2022-11-27T16:06:36.293Z,101431.09
2022-11-27T16:09:05.596Z,101437.31
2022-11-27T16:11:34.744Z,101430.22
2022-11-27T16:14:02.597Z,101440.91
2022-11-27T16:16:31.185Z,101454.25
2022-11-27T16:18:59.863Z,101450.72
2022-11-27T16:21:29.975Z,101438.25
2022-11-27T16:24:01.475Z,101428.44
2022-11-27T16:26:29.855Z,101431.13
2022-11-27T16:28:59.379Z,101435.59
2022-11-27T16:31:28.032Z,101436.47
2022-11-27T16:33:55.823Z,101430.25
2022-11-27T16:36:24.082Z,101423.09
2022-11-27T16:38:54.195Z,101424.91
2022-11-27T16:41:23.304Z,101422.22
2022-11-27T16:43:55.124Z,101415.09
2022-11-27T16:46:26.887Z,101407.94
2022-11-27T16:48:55.897Z,101404.41
2022-11-27T16:51:25.778Z,101401.72
2022-11-27T16:53:55.131Z,101402.59
2022-11-27T16:56:25.138Z,101396.34
2022-11-27T16:58:56.722Z,101388.38
2022-11-27T17:01:30.302Z,101392.81
2022-11-27T17:03:58.172Z,101388.38
2022-11-27T17:06:27.854Z,101396.38
2022-11-27T17:08:56.485Z,101375.00
2022-11-27T17:11:26.816Z,101395.47
2022-11-27T17:13:58.099Z,101382.13
2022-11-27T17:16:26.460Z,101374.97
2022-11-27T17:18:55.806Z,101381.22
2022-11-27T17:21:26.382Z,101362.56
2022-11-27T17:23:56.159Z,101350.97
2022-11-27T17:26:25.695Z,101344.75
2022-11-27T17:28:56.035Z,101357.16
2022-11-27T17:31:26.633Z,101342.94
2022-11-27T17:33:57.384Z,101338.47
2022-11-27T17:36:25.533Z,101339.34
2022-11-27T17:38:53.607Z,101317.13
2022-11-27T17:41:24.838Z,101319.81
2022-11-27T17:43:52.581Z,101314.47
2022-11-27T17:46:22.473Z,101298.47
2022-11-27T17:48:50.682Z,101286.91
2022-11-27T17:51:20.242Z,101297.56
2022-11-27T17:53:48.619Z,101302.00
2022-11-27T17:56:18.386Z,101282.44
2022-11-27T17:58:46.218Z,101299.31
2022-11-27T18:01:17.342Z,101287.75
2022-11-27T18:03:46.190Z,101286.84
2022-11-27T18:06:14.836Z,101286.00
2022-11-27T18:08:45.093Z,101278.84
2022-11-27T18:11:14.805Z,101277.97
2022-11-27T18:13:42.569Z,101269.97
2022-11-27T18:16:12.389Z,101278.00
2022-11-27T18:18:40.789Z,101286.00
2022-11-27T18:21:14.022Z,101266.44
2022-11-27T18:24:14.923Z,101260.22
2022-11-27T18:29:24.011Z,101259.31
2022-11-27T18:31:53.237Z,101264.66
2022-11-27T18:34:20.987Z,101252.22
2022-11-27T18:36:54.710Z,101255.78
2022-11-27T18:39:23.846Z,101260.22
2022-11-27T18:41:51.558Z,101254.88
2022-11-27T18:44:19.479Z,101251.31
2022-11-27T18:46:47.472Z,101237.09
2022-11-27T18:49:15.214Z,101243.31
2022-11-27T18:51:42.973Z,101244.22
2022-11-27T18:54:10.628Z,101250.44
2022-11-27T18:56:39.750Z,101249.56
2022-11-27T18:59:08.376Z,101259.31
2022-11-27T19:01:42.052Z,101261.09
2022-11-27T19:04:12.284Z,101260.22
2022-11-27T19:06:42.097Z,101255.78
2022-11-27T19:09:11.521Z,101251.31
2022-11-27T19:11:41.024Z,101238.88
2022-11-27T19:14:09.333Z,101238.88
2022-11-27T19:16:42.117Z,101226.41
2022-11-27T19:19:38.956Z,101226.44
2022-11-27T19:21:58.177Z,101219.28
2022-11-27T19:24:25.839Z,101221.97
2022-11-27T19:26:54.956Z,101225.50
2022-11-27T19:29:22.635Z,101228.19
2022-11-27T19:31:50.473Z,101232.63
2022-11-27T19:34:18.266Z,101233.50
2022-11-27T19:36:46.013Z,101228.16
2022-11-27T19:39:15.918Z,101229.03
2022-11-27T19:41:44.051Z,101225.50
2022-11-27T19:44:14.313Z,101223.72
2022-11-27T19:46:42.278Z,101221.91
2022-11-27T19:49:14.050Z,101218.34
2022-11-27T19:51:42.240Z,101221.03
2022-11-27T19:54:12.768Z,101218.34
2022-11-27T19:56:42.205Z,101206.78
2022-11-27T19:59:10.922Z,101190.78
2022-11-27T20:01:40.713Z,101183.66
2022-11-27T20:04:10.432Z,101179.22
2022-11-27T20:06:41.081Z,101174.78
2022-11-27T20:09:08.940Z,101164.09
2022-11-27T20:11:37.089Z,101168.50
2022-11-27T20:14:06.324Z,101158.75
2022-11-27T20:16:34.840Z,101149.84
2022-11-27T20:19:07.228Z,101141.84
2022-11-27T20:21:36.539Z,101135.66
2022-11-27T20:24:09.545Z,101135.66
2022-11-27T20:26:42.461Z,101128.53
2022-11-27T20:29:10.853Z,101129.41
2022-11-27T20:31:40.244Z,101137.44
2022-11-27T20:34:10.060Z,101139.19
2022-11-27T20:36:41.042Z,101138.31
2022-11-27T20:39:13.008Z,101137.44
2022-11-27T20:41:42.905Z,101134.78
2022-11-27T20:44:11.591Z,101136.53
2022-11-27T20:46:39.349Z,101131.22
2022-11-27T20:49:07.138Z,101116.09
2022-11-27T20:51:39.845Z,101120.56
2022-11-27T20:54:07.850Z,101117.91
2022-11-27T20:56:41.880Z,101107.22
2022-11-27T20:59:09.749Z,101085.00
2022-11-27T21:01:38.732Z,101083.19
2022-11-27T21:04:09.525Z,101089.44
2022-11-27T21:06:43.660Z,101082.31
2022-11-27T21:09:16.437Z,101079.66
2022-11-27T21:11:45.195Z,101082.31
2022-11-27T21:14:15.291Z,101090.31
2022-11-27T21:16:46.114Z,101082.34
2022-11-27T21:19:16.496Z,101087.69
2022-11-27T21:21:45.678Z,101078.78
2022-11-27T21:24:14.052Z,101071.69
2022-11-27T21:26:42.019Z,101072.56
2022-11-27T21:29:10.890Z,101067.22
2022-11-27T21:31:42.659Z,101064.56
2022-11-27T21:34:13.250Z,101053.91
2022-11-27T21:36:41.011Z,101059.22
2022-11-27T21:39:13.164Z,101057.47
2022-11-27T21:41:41.045Z,101045.91
2022-11-27T21:44:08.766Z,101043.22
2022-11-27T21:46:37.507Z,101053.00
2022-11-27T21:49:05.584Z,101051.25
2022-11-27T21:51:33.391Z,101056.59
2022-11-27T21:54:01.101Z,101054.81
2022-11-27T21:56:32.269Z,101062.81
2022-11-27T21:58:59.971Z,101050.34
2022-11-27T22:01:29.232Z,101047.66
2022-11-27T22:03:58.663Z,101047.66
2022-11-27T22:06:28.492Z,101040.56
2022-11-27T22:08:58.031Z,101033.47
2022-11-27T22:11:28.729Z,101042.34
2022-11-27T22:13:58.910Z,101048.53
2022-11-27T22:16:28.048Z,101039.66
2022-11-27T22:18:57.342Z,101039.66
2022-11-27T22:21:27.220Z,101036.09
2022-11-27T22:23:55.130Z,101041.44
2022-11-27T22:26:24.368Z,101030.75
2022-11-27T22:28:52.390Z,101022.78
2022-11-27T22:31:24.077Z,101024.56
2022-11-27T22:33:52.095Z,101020.97
2022-11-27T22:36:21.644Z,101021.84
2022-11-27T22:38:52.271Z,101022.78
2022-11-27T22:41:21.028Z,101019.19
2022-11-27T22:43:48.859Z,101013.88
2022-11-27T22:46:18.642Z,101013.00
2022-11-27T22:48:48.090Z,101002.31
2022-11-27T22:51:15.888Z,101005.00
2022-11-27T22:53:43.564Z,101005.88
2022-11-27T22:56:13.087Z,100992.53
2022-11-27T22:58:42.093Z,100982.75
2022-11-27T23:01:14.633Z,100980.09
2022-11-27T23:03:42.283Z,100983.66
2022-11-27T23:06:12.823Z,100977.44
2022-11-27T23:08:40.946Z,100990.75
2022-11-27T23:11:09.443Z,100980.09
2022-11-27T23:13:37.562Z,100981.84
2022-11-27T23:16:07.084Z,100976.53
2022-11-27T23:18:35.505Z,100965.88
2022-11-27T23:21:06.574Z,100956.13
2022-11-27T23:23:35.762Z,100953.47
2022-11-27T23:26:04.903Z,100954.34
2022-11-27T23:28:32.653Z,100942.81
2022-11-27T23:31:22.642Z,100944.56
2022-11-27T23:33:53.184Z,100949.88
2022-11-27T23:36:21.025Z,100942.78
2022-11-27T23:38:50.179Z,100951.66
2022-11-27T23:41:20.233Z,100944.56
2022-11-27T23:43:48.344Z,100934.78
2022-11-27T23:46:18.084Z,100939.19
2022-11-27T23:48:46.568Z,100929.44
2022-11-27T23:51:16.257Z,100928.53
2022-11-27T23:53:43.966Z,100930.31
2022-11-27T23:56:15.314Z,100921.47
2022-11-27T23:58:47.002Z,100924.13
